Time;durP1;ratioP1;P1;durP2;ratioP2;P2;SDS_P1;SDS_P2;PMS_P1;PMS_P2;Temp;Humidity;BMP_temperature;BMP_pressure;BME280_temperature;BME280_humidity;BME280_pressure;Samples;Min_cycle;Max_cycle;Signal;HPM_P1;HPM_P2
2021/11/04 00:02:20;;;;;;;8.63;3.35;;;21.80;83.90;;;;;;5072804;28;20078;-57
2021/11/04 00:04:48;;;;;;;4.07;3.28;;;21.90;83.70;;;;;;5072016;28;20025;-64
2021/11/04 00:07:17;;;;;;;6.82;3.80;;;21.80;83.60;;;;;;5068805;28;20025;-65
2021/11/04 00:09:44;;;;;;;5.07;2.80;;;21.80;83.70;;;;;;5069469;28;20631;-65
2021/11/04 00:12:12;;;;;;;5.57;3.47;;;21.90;84.10;;;;;;5069632;28;20410;-55
2021/11/04 00:14:39;;;;;;;6.55;3.33;;;21.80;83.90;;;;;;5072930;28;20348;-59
2021/11/04 00:17:07;;;;;;;5.85;3.20;;;21.80;83.80;;;;;;5068893;28;20035;-58
2021/11/04 00:19:34;;;;;;;6.53;3.55;;;21.90;84.00;;;;;;5072653;28;20029;-63
2021/11/04 00:22:01;;;;;;;5.15;3.55;;;21.90;84.00;;;;;;5072780;28;20092;-59
2021/11/04 00:24:29;;;;;;;7.50;3.92;;;21.80;83.90;;;;;;5072506;28;20092;-57
2021/11/04 00:26:57;;;;;;;7.50;3.50;;;21.80;83.90;;;;;;5068751;28;20105;-61
2021/11/04 00:29:24;;;;;;;6.13;3.03;;;21.80;84.40;;;;;;5073282;28;20069;-62
2021/11/04 00:31:59;;;;;;;5.13;2.95;;;21.80;84.30;;;;;;5072781;28;20566;-63
2021/11/04 00:34:32;;;;;;;4.78;2.88;;;21.80;84.20;;;;;;5072704;28;20490;-65
2021/11/04 00:36:59;;;;;;;5.25;3.17;;;21.80;84.40;;;;;;5069613;28;20032;-61
2021/11/04 00:40:01;;;;;;;6.43;2.80;;;21.90;84.70;;;;;;5070379;28;20039;-61
2021/11/04 00:42:36;;;;;;;8.20;2.67;;;21.80;84.30;;;;;;5068553;28;20040;-63
2021/11/04 00:45:07;;;;;;;5.30;2.50;;;21.80;85.50;;;;;;5057632;28;20036;-63
2021/11/04 00:47:38;;;;;;;4.78;2.85;;;21.80;85.10;;;;;;5040980;28;20839;-66
2021/11/04 00:50:08;;;;;;;7.07;3.10;;;21.80;84.70;;;;;;5073037;28;20043;-66
2021/11/04 00:52:45;;;;;;;8.90;3.25;;;21.80;84.50;;;;;;5074754;28;20421;-65
2021/11/04 00:55:14;;;;;;;7.28;2.97;;;21.80;84.80;;;;;;5061267;28;20051;-62
2021/11/04 00:57:42;;;;;;;5.38;2.85;;;21.80;84.40;;;;;;5074459;28;20063;-63
2021/11/04 01:00:19;;;;;;;8.02;2.70;;;21.80;84.40;;;;;;5071916;28;20040;-66
2021/11/04 01:02:51;;;;;;;4.20;2.53;;;21.80;84.70;;;;;;5073595;28;20028;-65
2021/11/04 01:05:30;;;;;;;7.75;3.35;;;21.70;84.70;;;;;;5073248;28;20114;-66
2021/11/04 01:07:59;;;;;;;9.10;2.90;;;21.70;84.70;;;;;;5074739;28;20123;-62
2021/11/04 01:10:27;;;;;;;6.60;3.50;;;21.70;84.90;;;;;;5073299;28;20037;-66
2021/11/04 01:12:55;;;;;;;6.45;2.83;;;21.70;84.90;;;;;;5073600;28;20020;-65
2021/11/04 01:15:24;;;;;;;6.13;3.00;;;21.70;85.10;;;;;;5074473;28;20403;-65
2021/11/04 01:17:52;;;;;;;8.85;2.90;;;21.70;85.10;;;;;;5072738;28;20036;-67
2021/11/04 01:20:22;;;;;;;4.97;2.53;;;21.70;85.20;;;;;;5074327;28;20455;-66
2021/11/04 01:22:51;;;;;;;4.80;2.80;;;21.70;85.00;;;;;;5074044;28;20069;-66
2021/11/04 01:25:21;;;;;;;6.13;2.65;;;21.60;85.10;;;;;;5074285;28;20035;-68
2021/11/04 01:27:51;;;;;;;6.95;3.00;;;21.60;85.50;;;;;;5072444;28;20048;-65
2021/11/04 01:30:22;;;;;;;6.22;3.10;;;21.60;85.70;;;;;;5073117;28;20459;-65
2021/11/04 01:32:49;;;;;;;5.38;2.45;;;21.60;85.70;;;;;;5073996;28;20033;-64
2021/11/04 01:35:20;;;;;;;7.65;3.20;;;21.70;85.90;;;;;;5072665;28;20514;-61
2021/11/04 01:37:51;;;;;;;6.10;2.67;;;21.60;85.80;;;;;;5074239;28;20391;-61
2021/11/04 01:40:18;;;;;;;6.45;2.65;;;21.60;85.90;;;;;;5072631;28;20025;-65
2021/11/04 01:42:46;;;;;;;7.20;2.63;;;21.60;86.10;;;;;;5073057;28;20174;-63
2021/11/04 01:45:13;;;;;;;4.78;2.38;;;21.60;86.20;;;;;;5072576;28;20029;-66
2021/11/04 01:47:45;;;;;;;4.82;2.50;;;21.60;86.30;;;;;;5071794;28;20043;-67
2021/11/04 01:50:18;;;;;;;5.78;3.10;;;21.60;86.40;;;;;;5073824;28;20025;-67
2021/11/04 01:52:49;;;;;;;5.10;2.45;;;21.60;86.40;;;;;;5072208;28;20044;-68
2021/11/04 01:55:20;;;;;;;6.28;3.10;;;21.60;86.80;;;;;;5056172;28;20053;-69
2021/11/04 01:57:54;;;;;;;5.60;2.60;;;21.60;86.60;;;;;;5074149;28;20146;-65
2021/11/04 02:00:24;;;;;;;4.57;2.83;;;21.50;86.60;;;;;;5072245;28;20029;-66
2021/11/04 02:03:34;;;;;;;4.70;2.70;;;21.60;86.80;;;;;;5074044;28;20028;-65
2021/11/04 02:06:22;;;;;;;5.20;3.10;;;21.50;86.50;;;;;;5072316;28;20032;-65
2021/11/04 02:09:09;;;;;;;4.35;2.30;;;21.60;86.80;;;;;;5072450;28;20035;-67
2021/11/04 02:11:45;;;;;;;5.18;2.22;;;21.60;87.00;;;;;;5072613;28;20068;-65
2021/11/04 02:14:30;;;;;;;5.32;2.33;;;21.60;87.30;;;;;;5072342;28;20028;-65
2021/11/04 02:17:01;;;;;;;7.18;2.50;;;21.60;86.70;;;;;;5073547;28;20103;-63
2021/11/04 02:19:52;;;;;;;3.80;2.33;;;21.60;86.70;;;;;;5072336;28;20163;-68
2021/11/04 02:22:54;;;;;;;5.88;3.05;;;21.60;87.00;;;;;;5073543;28;20750;-64
2021/11/04 02:25:29;;;;;;;;;;;21.60;87.00;;;;;;5072266;28;20028;-66
2021/11/04 02:27:59;;;;;;;5.15;2.38;;;21.50;87.50;;;;;;5072260;28;20326;-67
2021/11/04 02:30:28;;;;;;;3.92;2.35;;;21.50;87.30;;;;;;5072664;28;20086;-63
2021/11/04 02:32:58;;;;;;;6.78;3.25;;;21.60;87.20;;;;;;5072551;28;20021;-64
2021/11/04 02:35:29;;;;;;;5.90;2.80;;;21.60;87.30;;;;;;5071345;28;20036;-61
2021/11/04 02:37:59;;;;;;;6.80;2.50;;;21.60;87.10;;;;;;5072723;28;20017;-64
2021/11/04 02:40:27;;;;;;;6.97;3.10;;;21.60;87.40;;;;;;5071473;28;20055;-63
2021/11/04 02:42:55;;;;;;;6.65;2.60;;;21.60;87.00;;;;;;5072054;28;20513;-64
2021/11/04 02:45:25;;;;;;;6.07;2.58;;;21.50;87.00;;;;;;5072318;28;20035;-65
2021/11/04 02:47:53;;;;;;;5.35;2.00;;;21.60;87.30;;;;;;5055122;28;20043;-68
2021/11/04 02:50:26;;;;;;;6.82;2.17;;;21.60;87.30;;;;;;5070431;28;20109;-66
2021/11/04 02:52:57;;;;;;;6.03;2.50;;;21.60;87.40;;;;;;5073021;28;20043;-64
2021/11/04 02:55:36;;;;;;;5.75;2.25;;;21.60;87.50;;;;;;5070641;28;20046;-63
2021/11/04 02:58:08;;;;;;;6.50;2.38;;;21.60;87.60;;;;;;5072710;28;20024;-65
2021/11/04 03:00:38;;;;;;;6.13;2.40;;;21.60;87.50;;;;;;5072215;28;20386;-59
2021/11/04 03:03:08;;;;;;;3.97;2.28;;;21.60;87.30;;;;;;5072980;28;20081;-64
2021/11/04 03:05:39;;;;;;;3.70;2.42;;;21.60;87.00;;;;;;5072725;28;20035;-60
2021/11/04 03:08:06;;;;;;;4.32;2.13;;;21.60;86.90;;;;;;5037612;28;20040;-60
2021/11/04 03:10:34;;;;;;;9.05;2.33;;;21.60;86.90;;;;;;5072583;28;20024;-57
2021/11/04 03:13:02;;;;;;;4.82;2.13;;;21.60;87.60;;;;;;5072501;28;20025;-58
2021/11/04 03:15:34;;;;;;;3.72;2.20;;;21.70;87.30;;;;;;5072800;28;20044;-58
2021/11/04 03:18:02;;;;;;;4.45;2.78;;;21.70;87.00;;;;;;5072515;28;20073;-63
2021/11/04 03:20:29;;;;;;;5.07;2.40;;;21.70;86.90;;;;;;5071991;28;20040;-60
2021/11/04 03:22:58;;;;;;;4.22;2.03;;;21.70;86.80;;;;;;5071886;28;20397;-58
2021/11/04 03:25:26;;;;;;;3.28;2.22;;;21.70;86.60;;;;;;5072601;28;20062;-56
2021/11/04 03:27:55;;;;;;;4.45;2.10;;;21.80;86.90;;;;;;5072190;28;20150;-56
2021/11/04 03:30:28;;;;;;;2.90;2.00;;;21.80;86.70;;;;;;5073050;28;20033;-64
2021/11/04 03:32:59;;;;;;;6.00;2.08;;;21.80;86.70;;;;;;5073022;28;20046;-61
2021/11/04 03:35:31;;;;;;;4.55;2.22;;;21.80;86.70;;;;;;5071569;28;20020;-60
2021/11/04 03:38:01;;;;;;;4.65;1.88;;;21.80;86.80;;;;;;5070421;28;20067;-57
2021/11/04 03:40:39;;;;;;;5.55;2.30;;;21.80;86.90;;;;;;5072516;28;20023;-58
2021/11/04 03:43:07;;;;;;;4.95;2.33;;;21.80;86.80;;;;;;5067848;28;20495;-54
2021/11/04 03:45:45;;;;;;;3.55;1.80;;;21.80;86.60;;;;;;5071556;28;20031;-54
2021/11/04 03:48:13;;;;;;;4.72;1.95;;;21.80;86.50;;;;;;5072650;28;20032;-58
2021/11/04 03:50:41;;;;;;;4.38;1.85;;;21.80;86.50;;;;;;5071950;28;20044;-58
2021/11/04 03:53:10;;;;;;;4.97;2.53;;;21.80;86.40;;;;;;5072805;28;20020;-60
2021/11/04 03:55:38;;;;;;;5.18;2.38;;;21.80;86.40;;;;;;5072100;28;20060;-58
2021/11/04 03:58:08;;;;;;;4.60;2.10;;;21.80;86.50;;;;;;5071865;28;20158;-63
2021/11/04 04:00:36;;;;;;;6.28;2.50;;;21.80;86.50;;;;;;5071570;28;20024;-62
2021/11/04 04:03:03;;;;;;;6.28;2.58;;;21.80;86.60;;;;;;5071699;28;20037;-60
2021/11/04 04:05:33;;;;;;;6.28;1.92;;;21.80;86.70;;;;;;5071813;28;20021;-61
2021/11/04 04:08:01;;;;;;;4.32;2.28;;;21.80;86.80;;;;;;5071890;28;20093;-61
2021/11/04 04:10:31;;;;;;;5.80;2.25;;;21.80;86.50;;;;;;5071274;28;20060;-63
2021/11/04 04:13:02;;;;;;;4.68;2.50;;;21.80;86.50;;;;;;5071936;28;20483;-64
2021/11/04 04:15:30;;;;;;;4.28;1.85;;;21.80;86.30;;;;;;5072419;28;20056;-62
2021/11/04 04:17:57;;;;;;;3.47;1.67;;;21.80;86.50;;;;;;5072097;28;20107;-63
2021/11/04 04:20:26;;;;;;;5.85;1.95;;;21.80;86.70;;;;;;5071607;28;20363;-60
2021/11/04 04:22:54;;;;;;;3.08;1.63;;;21.80;86.90;;;;;;5071580;28;20112;-61
2021/11/04 04:25:21;;;;;;;5.40;2.03;;;21.80;87.00;;;;;;5071758;28;20501;-62
2021/11/04 04:27:48;;;;;;;3.33;1.73;;;21.80;87.00;;;;;;5070111;28;20032;-60
2021/11/04 04:30:16;;;;;;;4.22;1.77;;;21.80;87.20;;;;;;5071475;28;20032;-62
2021/11/04 04:32:43;;;;;;;3.20;1.80;;;21.80;87.30;;;;;;5071045;28;20031;-61
2021/11/04 04:35:11;;;;;;;4.05;1.77;;;21.80;87.30;;;;;;5071051;28;20506;-63
2021/11/04 04:37:38;;;;;;;3.65;1.42;;;21.80;87.40;;;;;;5071212;28;20021;-62
2021/11/04 04:40:06;;;;;;;4.38;2.08;;;21.80;87.30;;;;;;5073211;28;20032;-61
2021/11/04 04:42:34;;;;;;;4.85;1.83;;;21.80;87.50;;;;;;5074534;28;20039;-61
2021/11/04 04:45:01;;;;;;;2.97;1.48;;;21.70;87.40;;;;;;5073439;28;20093;-63
2021/11/04 04:47:29;;;;;;;3.35;1.80;;;21.70;87.40;;;;;;5074577;28;20025;-63
2021/11/04 04:49:58;;;;;;;3.20;1.50;;;21.70;87.30;;;;;;5074571;28;20029;-60
2021/11/04 04:52:29;;;;;;;5.50;1.50;;;21.70;87.20;;;;;;5074087;28;20039;-64
2021/11/04 04:54:57;;;;;;;5.15;1.50;;;21.70;87.40;;;;;;5074139;28;20435;-63
2021/11/04 04:57:25;;;;;;;3.20;1.75;;;21.70;87.40;;;;;;5073341;28;20474;-62
2021/11/04 04:59:57;;;;;;;3.10;1.65;;;21.70;87.50;;;;;;5074496;28;20107;-61
2021/11/04 05:02:28;;;;;;;3.92;1.45;;;21.70;87.50;;;;;;5074309;28;20025;-62
2021/11/04 05:04:56;;;;;;;2.42;1.45;;;21.70;87.50;;;;;;5074360;28;20467;-64
2021/11/04 05:07:23;;;;;;;2.55;1.70;;;21.70;87.50;;;;;;5074824;28;20032;-63
2021/11/04 05:09:50;;;;;;;2.78;1.58;;;21.70;87.50;;;;;;5074802;28;20017;-62
2021/11/04 05:12:18;;;;;;;3.75;1.52;;;21.70;87.40;;;;;;5073065;28;20351;-60
2021/11/04 05:14:46;;;;;;;3.50;1.58;;;21.70;87.50;;;;;;5072755;28;20032;-62
2021/11/04 05:17:14;;;;;;;3.70;1.30;;;21.70;87.60;;;;;;5074290;28;20036;-61
2021/11/04 05:19:41;;;;;;;4.10;1.40;;;21.70;87.60;;;;;;5073953;28;20016;-62
2021/11/04 05:22:09;;;;;;;5.05;1.67;;;21.60;87.60;;;;;;5074403;28;20024;-65
2021/11/04 05:24:36;;;;;;;4.05;1.40;;;21.70;87.70;;;;;;5074162;28;20111;-58
2021/11/04 05:27:05;;;;;;;2.28;1.20;;;21.60;88.00;;;;;;5073899;28;20509;-63
2021/11/04 05:29:33;;;;;;;2.50;1.42;;;21.60;88.00;;;;;;5074376;28;20038;-61
2021/11/04 05:32:08;;;;;;;2.97;1.38;;;21.60;87.90;;;;;;5074090;28;20036;-64
2021/11/04 05:34:40;;;;;;;5.22;2.58;;;21.60;87.90;;;;;;5073686;28;20467;-63
2021/11/04 05:37:08;;;;;;;6.72;2.65;;;21.70;88.00;;;;;;5073562;28;20371;-61
2021/11/04 05:39:37;;;;;;;3.80;2.08;;;21.70;87.90;;;;;;5073594;28;20024;-61
2021/11/04 05:42:05;;;;;;;5.18;1.50;;;21.60;87.80;;;;;;5073909;28;20031;-60
2021/11/04 05:44:35;;;;;;;3.45;1.75;;;21.60;88.10;;;;;;5072363;28;20052;-55
2021/11/04 05:47:03;;;;;;;3.17;1.77;;;21.60;88.10;;;;;;5073829;28;20107;-62
2021/11/04 05:49:31;;;;;;;4.13;1.85;;;21.70;88.20;;;;;;5067238;28;20028;-58
2021/11/04 05:51:58;;;;;;;2.88;1.35;;;21.60;88.20;;;;;;5067710;28;20036;-61
2021/11/04 05:54:26;;;;;;;5.15;2.13;;;21.60;88.30;;;;;;5069503;28;20382;-59
2021/11/04 05:56:53;;;;;;;4.10;1.90;;;21.70;88.30;;;;;;5070645;28;20033;-59
2021/11/04 05:59:20;;;;;;;3.42;1.30;;;21.60;88.40;;;;;;5066132;28;20486;-64
2021/11/04 06:02:04;;;;;;;4.10;1.75;;;21.70;88.20;;;;;;5070671;28;20039;-54
2021/11/04 06:04:36;;;;;;;5.22;1.73;;;21.70;88.40;;;;;;5068425;28;20052;-60
2021/11/04 06:07:04;;;;;;;1.92;0.98;;;21.60;88.40;;;;;;5070908;28;20066;-59
2021/11/04 06:09:34;;;;;;;3.00;1.50;;;21.60;88.30;;;;;;5069190;28;20383;-61
2021/11/04 06:12:02;;;;;;;4.80;1.73;;;21.60;88.30;;;;;;5070483;28;20033;-61
2021/11/04 06:14:29;;;;;;;5.88;3.78;;;21.50;90.30;;;;;;5069788;28;20020;-63
2021/11/04 06:16:56;;;;;;;7.10;2.58;;;21.10;91.00;;;;;;5071147;28;20434;-63
2021/11/04 06:19:24;;;;;;;8.73;2.33;;;20.90;91.30;;;;;;5072635;28;20036;-64
2021/11/04 06:21:51;;;;;;;10.55;1.50;;;20.70;92.60;;;;;;5072140;28;20085;-62
2021/11/04 06:24:19;;;;;;;9.27;2.85;;;20.50;91.90;;;;;;5072659;28;20032;-63
2021/11/04 06:26:46;;;;;;;11.75;3.40;;;20.40;93.50;;;;;;5072448;28;20467;-60
2021/11/04 06:29:14;;;;;;;7.53;2.50;;;20.30;93.00;;;;;;5071923;28;20107;-60
2021/11/04 06:31:41;;;;;;;7.10;2.30;;;20.40;93.20;;;;;;5072437;28;20562;-66
2021/11/04 06:34:09;;;;;;;7.05;2.30;;;20.10;93.00;;;;;;5072127;28;20467;-62
2021/11/04 06:36:36;;;;;;;10.82;4.88;;;20.20;93.60;;;;;;5072240;28;20078;-62
2021/11/04 06:39:04;;;;;;;8.65;2.97;;;20.30;93.10;;;;;;5071758;28;20031;-65
2021/11/04 06:41:31;;;;;;;10.88;2.50;;;20.20;93.40;;;;;;5072273;28;20507;-63
2021/11/04 06:43:58;;;;;;;10.30;5.10;;;20.20;93.20;;;;;;5072133;28;20027;-62
2021/11/04 06:46:27;;;;;;;13.20;2.00;;;20.30;93.00;;;;;;5071767;28;20024;-64
2021/11/04 06:49:16;;;;;;;8.80;4.90;;;20.30;92.50;;;;;;5071410;28;20420;-63
2021/11/04 06:51:48;;;;;;;6.95;3.47;;;20.50;92.20;;;;;;5072426;28;20089;-63
2021/11/04 06:54:17;;;;;;;13.93;2.63;;;20.50;92.40;;;;;;5072706;28;20148;-64
2021/11/04 06:56:47;;;;;;;7.85;3.55;;;20.60;91.90;;;;;;5072804;28;20397;-65
2021/11/04 06:59:20;;;;;;;8.13;3.00;;;20.60;92.00;;;;;;5072491;28;20024;-66
2021/11/04 07:01:59;;;;;;;9.23;3.13;;;20.60;92.30;;;;;;5072169;28;20020;-63
2021/11/04 07:04:34;;;;;;;8.40;2.85;;;20.50;92.10;;;;;;5071184;28;20032;-60
2021/11/04 07:07:13;;;;;;;7.72;3.92;;;20.50;92.70;;;;;;5072442;28;20020;-62
2021/11/04 07:09:42;;;;;;;11.10;4.97;;;20.40;92.90;;;;;;5072289;28;20039;-66
2021/11/04 07:12:13;;;;;;;11.18;3.53;;;20.70;92.10;;;;;;5071973;28;20048;-61
2021/11/04 07:14:42;;;;;;;6.53;2.80;;;20.70;92.20;;;;;;5071614;28;20437;-62
2021/11/04 07:17:12;;;;;;;8.57;3.40;;;20.70;92.50;;;;;;5072600;28;20021;-64
2021/11/04 07:19:40;;;;;;;6.85;3.17;;;20.50;92.90;;;;;;5071982;28;20099;-64
2021/11/04 07:22:30;;;;;;;9.70;2.55;;;20.50;92.80;;;;;;5071850;28;20032;-61
2021/11/04 07:25:08;;;;;;;7.13;4.07;;;20.60;92.80;;;;;;5072570;28;20036;-65
2021/11/04 07:28:04;;;;;;;7.15;3.10;;;20.80;92.20;;;;;;5072103;28;20028;-62
2021/11/04 07:30:32;;;;;;;5.20;3.15;;;21.00;92.10;;;;;;5071617;28;20052;-62
2021/11/04 07:33:04;;;;;;;10.80;3.42;;;21.20;91.90;;;;;;5071921;28;20041;-63
2021/11/04 07:35:34;;;;;;;5.63;2.95;;;21.20;91.70;;;;;;5072364;28;20024;-58
2021/11/04 07:38:04;;;;;;;7.95;3.22;;;21.30;91.80;;;;;;5070681;28;20124;-62
2021/11/04 07:40:32;;;;;;;8.48;3.25;;;21.40;91.60;;;;;;5071788;28;20040;-62
2021/11/04 07:43:00;;;;;;;7.93;2.67;;;21.30;91.50;;;;;;5072021;28;20360;-64
2021/11/04 07:45:30;;;;;;;5.05;2.38;;;21.40;91.60;;;;;;5070925;28;20051;-63
2021/11/04 07:47:58;;;;;;;7.10;2.28;;;21.40;91.30;;;;;;5071878;28;20383;-60
2021/11/04 07:50:29;;;;;;;5.15;2.42;;;21.40;91.50;;;;;;5071713;28;20029;-58
2021/11/04 07:52:56;;;;;;;8.13;2.95;;;21.30;91.70;;;;;;5063759;28;20045;-61
2021/11/04 07:55:24;;;;;;;8.57;2.55;;;21.40;91.60;;;;;;5069146;28;20450;-61
2021/11/04 07:57:51;;;;;;;13.55;2.78;;;21.30;91.90;;;;;;5069005;28;20024;-57
2021/11/04 08:00:21;;;;;;;12.27;2.17;;;21.40;92.10;;;;;;5068742;28;20024;-62
2021/11/04 08:02:49;;;;;;;9.52;2.65;;;21.30;92.10;;;;;;5067154;28;20154;-59
2021/11/04 08:05:18;;;;;;;14.27;3.25;;;21.20;92.50;;;;;;5069319;28;20403;-58
2021/11/04 08:07:46;;;;;;;6.45;2.05;;;21.20;92.80;;;;;;5068688;28;20035;-62
2021/11/04 08:10:16;;;;;;;11.98;1.92;;;21.20;92.90;;;;;;5069292;28;20028;-64
2021/11/04 08:12:45;;;;;;;7.68;2.25;;;21.30;93.00;;;;;;5066256;28;20066;-56
2021/11/04 08:15:14;;;;;;;8.68;2.72;;;21.30;93.00;;;;;;5069010;28;20048;-62
2021/11/04 08:17:41;;;;;;;9.73;2.50;;;21.40;93.00;;;;;;5068902;28;20039;-59
2021/11/04 08:20:10;;;;;;;12.07;2.70;;;21.50;93.40;;;;;;5072887;28;20029;-65
2021/11/04 08:22:39;;;;;;;12.90;2.90;;;21.60;93.40;;;;;;5067322;28;20028;-55
2021/11/04 08:25:07;;;;;;;11.50;3.53;;;21.60;93.60;;;;;;5073616;28;20023;-63
2021/11/04 08:27:35;;;;;;;11.70;3.38;;;21.60;93.50;;;;;;5072679;28;20032;-61
2021/11/04 08:30:04;;;;;;;10.00;2.92;;;21.60;93.90;;;;;;5072256;28;20119;-58
2021/11/04 08:32:31;;;;;;;12.68;4.00;;;21.70;93.80;;;;;;5067498;28;20032;-61
2021/11/04 08:34:59;;;;;;;12.77;3.55;;;21.70;94.30;;;;;;5072437;28;20023;-58
2021/11/04 08:37:26;;;;;;;11.32;3.40;;;21.70;94.50;;;;;;5072805;28;20032;-59
2021/11/04 08:39:54;;;;;;;10.65;3.92;;;21.70;94.50;;;;;;5072218;28;20028;-60
2021/11/04 08:42:24;;;;;;;12.63;3.78;;;21.80;95.00;;;;;;5069299;28;20103;-63
2021/11/04 08:44:55;;;;;;;15.63;4.40;;;21.80;95.20;;;;;;5065439;28;20071;-64
2021/11/04 08:47:23;;;;;;;16.85;5.00;;;21.80;95.70;;;;;;5069250;28;20028;-65
2021/11/04 08:49:50;;;;;;;15.75;4.20;;;21.80;95.20;;;;;;5065973;28;20024;-61
2021/11/04 08:52:18;;;;;;;62.05;44.55;;;21.90;95.70;;;;;;5067582;28;20521;-59
2021/11/04 08:54:45;;;;;;;16.50;6.40;;;21.80;95.50;;;;;;5069091;28;20497;-59
2021/11/04 08:57:13;;;;;;;15.80;7.03;;;21.90;95.50;;;;;;5069601;28;21358;-62
2021/11/04 08:59:41;;;;;;;11.05;5.75;;;21.90;95.70;;;;;;5068790;28;20103;-59
2021/11/04 09:02:17;;;;;;;16.67;6.88;;;21.90;95.60;;;;;;5069092;28;20035;-61
2021/11/04 09:04:48;;;;;;;15.80;6.15;;;21.90;95.40;;;;;;5067476;28;20641;-57
2021/11/04 09:07:20;;;;;;;14.30;6.22;;;21.90;95.00;;;;;;5068000;28;20017;-62
2021/11/04 09:09:49;;;;;;;13.15;5.13;;;21.90;95.20;;;;;;5067569;28;20101;-60
2021/11/04 09:12:16;;;;;;;19.55;6.10;;;21.80;95.10;;;;;;5068255;28;20032;-60
2021/11/04 09:14:45;;;;;;;84.28;73.63;;;21.80;95.90;;;;;;5067528;28;20078;-58
2021/11/04 09:17:14;;;;;;;67.55;57.30;;;21.80;95.40;;;;;;5070540;28;20445;-59
2021/11/04 09:19:42;;;;;;;15.88;8.90;;;21.70;94.70;;;;;;5072200;28;20051;-62
2021/11/04 09:22:10;;;;;;;15.13;7.03;;;21.70;94.60;;;;;;5071353;28;20413;-65
2021/11/04 09:24:38;;;;;;;15.57;8.15;;;21.70;94.40;;;;;;5071201;28;20142;-57
2021/11/04 09:27:06;;;;;;;18.00;8.13;;;21.70;94.70;;;;;;5071377;28;20035;-56
2021/11/04 09:29:36;;;;;;;11.32;5.43;;;21.70;94.30;;;;;;5072954;28;20021;-63
2021/11/04 09:32:06;;;;;;;17.95;8.40;;;21.60;94.20;;;;;;5072845;28;20044;-62
2021/11/04 09:34:38;;;;;;;11.52;6.32;;;21.60;94.30;;;;;;5066759;28;20051;-60
2021/11/04 09:37:07;;;;;;;13.15;6.18;;;21.60;94.20;;;;;;5067937;28;20036;-61
2021/11/04 09:39:36;;;;;;;15.15;6.93;;;21.70;94.10;;;;;;5071788;28;20048;-62
2021/11/04 09:42:07;;;;;;;16.10;7.55;;;21.60;94.00;;;;;;5070777;28;20455;-61
2021/11/04 09:44:34;;;;;;;18.52;9.63;;;21.60;93.90;;;;;;5068367;28;20025;-62
2021/11/04 09:47:02;;;;;;;15.27;10.57;;;21.60;93.80;;;;;;5070845;28;20043;-61
2021/11/04 09:49:30;;;;;;;14.27;11.27;;;21.60;93.70;;;;;;5071583;28;20055;-65
2021/11/04 09:51:57;;;;;;;22.48;14.35;;;21.60;93.60;;;;;;5071023;28;20532;-63
2021/11/04 09:54:25;;;;;;;20.85;13.10;;;21.60;93.50;;;;;;5066840;28;20024;-67
2021/11/04 09:56:52;;;;;;;22.35;14.00;;;21.60;93.40;;;;;;5071477;28;20040;-62
2021/11/04 09:59:23;;;;;;;17.02;11.90;;;21.60;93.40;;;;;;5070611;28;20071;-65
2021/11/04 10:01:51;;;;;;;16.77;12.18;;;21.60;93.30;;;;;;5071977;28;20035;-67
2021/11/04 10:04:33;;;;;;;17.63;12.70;;;21.60;93.30;;;;;;5068408;28;20063;-65
2021/11/04 10:07:10;;;;;;;17.83;12.27;;;21.50;93.20;;;;;;5070790;28;20036;-68
2021/11/04 10:09:39;;;;;;;18.00;11.88;;;21.50;93.10;;;;;;5069596;28;20051;-52
2021/11/04 10:12:14;;;;;;;17.00;12.38;;;21.50;93.10;;;;;;5070851;28;20435;-69
2021/11/04 10:14:42;;;;;;;17.60;13.27;;;21.50;93.00;;;;;;5070824;28;20013;-69
2021/11/04 10:17:32;;;;;;;19.52;11.93;;;21.50;93.00;;;;;;5071251;28;20025;-64
2021/11/04 10:20:15;;;;;;;15.77;11.23;;;21.50;92.90;;;;;;5069668;28;20462;-62
2021/11/04 10:22:42;;;;;;;22.88;12.07;;;21.50;92.90;;;;;;5063457;28;20032;-54
2021/11/04 10:25:24;;;;;;;19.83;12.35;;;21.50;92.80;;;;;;5070222;28;20111;-61
2021/11/04 10:27:55;;;;;;;19.20;12.13;;;21.50;92.70;;;;;;5068173;28;20475;-55
2021/11/04 10:30:55;;;;;;;13.97;11.57;;;21.50;92.70;;;;;;5070970;28;20040;-55
2021/11/04 10:33:29;;;;;;;15.70;10.55;;;21.50;92.70;;;;;;5062086;28;20403;-57
2021/11/04 10:36:04;;;;;;;17.42;12.40;;;21.50;92.60;;;;;;5069976;28;20436;-60
2021/11/04 10:38:37;;;;;;;17.92;11.38;;;21.50;92.60;;;;;;5069009;28;20024;-53
2021/11/04 10:41:18;;;;;;;13.85;10.43;;;21.50;92.60;;;;;;5070600;28;20027;-58
2021/11/04 10:43:47;;;;;;;20.33;11.93;;;21.50;92.50;;;;;;5066246;28;20390;-55
2021/11/04 10:46:16;;;;;;;14.55;10.00;;;21.40;92.40;;;;;;5070798;28;20044;-63
2021/11/04 10:48:48;;;;;;;17.35;10.45;;;21.50;92.50;;;;;;5069626;28;20116;-59
2021/11/04 10:51:19;;;;;;;13.80;10.10;;;21.50;92.40;;;;;;5070683;28;20036;-60
2021/11/04 10:54:01;;;;;;;18.60;11.07;;;21.40;92.30;;;;;;5066082;28;20056;-60
2021/11/04 10:56:35;;;;;;;11.80;9.13;;;21.40;92.30;;;;;;5066153;28;20391;-65
2021/11/04 10:59:09;;;;;;;13.20;10.15;;;21.40;92.30;;;;;;5066634;28;20495;-64
2021/11/04 11:01:41;;;;;;;17.40;10.13;;;21.40;92.30;;;;;;5068054;28;20047;-63
2021/11/04 11:04:12;;;;;;;;;;;21.40;92.30;;;;;;5066186;28;20029;-65
2021/11/04 11:06:41;;;;;;;15.37;10.23;;;21.40;92.40;;;;;;5069965;28;19947;-69
2021/11/04 11:09:13;;;;;;;14.60;9.70;;;21.40;92.40;;;;;;5069144;28;20257;-66
2021/11/04 11:11:41;;;;;;;;;;;21.30;92.30;;;;;;5070394;28;20360;-63
2021/11/04 11:14:09;;;;;;;11.18;8.80;;;21.40;92.20;;;;;;5065657;28;19904;-63
2021/11/04 11:16:47;;;;;;;13.95;9.50;;;21.30;92.20;;;;;;5067791;28;20021;-62
2021/11/04 11:19:20;;;;;;;13.07;8.93;;;21.30;92.20;;;;;;5068485;28;20024;-64
2021/11/04 11:21:51;;;;;;;15.50;9.60;;;21.30;92.10;;;;;;5069684;28;20063;-62
2021/11/04 11:24:29;;;;;;;17.23;9.85;;;21.30;92.10;;;;;;5064716;28;20029;-61
2021/11/04 11:26:58;;;;;;;14.73;8.73;;;21.30;92.00;;;;;;5068429;28;20457;-59
2021/11/04 11:29:31;;;;;;;14.50;8.82;;;21.30;92.10;;;;;;5069832;28;20032;-64
2021/11/04 11:31:58;;;;;;;12.55;8.45;;;21.30;92.10;;;;;;5068523;28;20127;-57
2021/11/04 11:34:28;;;;;;;14.95;9.23;;;21.30;92.10;;;;;;5065876;28;20374;-62
2021/11/04 11:37:11;;;;;;;14.00;9.13;;;21.30;92.00;;;;;;5069431;28;20036;-60
2021/11/04 11:39:45;;;;;;;12.13;9.18;;;21.30;92.00;;;;;;5066660;28;20130;-62
2021/11/04 11:42:15;;;;;;;10.65;8.50;;;21.30;92.00;;;;;;5068391;28;20039;-60
2021/11/04 11:44:53;;;;;;;12.35;7.90;;;21.30;92.00;;;;;;5072569;28;20222;-67
2021/11/04 11:47:34;;;;;;;10.70;7.50;;;21.30;92.30;;;;;;5072420;28;20032;-63
2021/11/04 11:50:21;;;;;;;10.18;8.13;;;21.20;92.10;;;;;;5074644;28;20024;-63
2021/11/04 11:53:03;;;;;;;12.55;8.70;;;21.20;92.00;;;;;;5068213;28;20040;-63
2021/11/04 11:55:47;;;;;;;11.80;8.82;;;21.20;92.30;;;;;;5072869;28;20040;-63
2021/11/04 11:58:23;;;;;;;11.80;7.50;;;21.20;91.90;;;;;;5073666;28;20036;-64
2021/11/04 12:01:01;;;;;;;9.63;7.30;;;21.30;91.90;;;;;;5070758;28;20407;-63
2021/11/04 12:03:41;;;;;;;9.18;7.03;;;21.20;91.90;;;;;;5071979;28;20135;-60
2021/11/04 12:06:28;;;;;;;12.05;8.07;;;21.30;91.90;;;;;;5073908;28;20064;-54
2021/11/04 12:09:00;;;;;;;10.88;8.60;;;21.30;91.70;;;;;;5073322;28;20029;-57
2021/11/04 12:11:42;;;;;;;;;;;21.30;91.70;;;;;;5073584;28;20139;-54
2021/11/04 12:14:24;;;;;;;10.50;7.25;;;21.30;91.70;;;;;;5070187;28;19912;-59
2021/11/04 12:17:01;;;;;;;11.52;7.47;;;21.30;91.60;;;;;;5070244;28;20044;-52
2021/11/04 12:19:34;;;;;;;11.85;7.25;;;21.30;91.60;;;;;;5072709;28;20036;-59
2021/11/04 12:22:02;;;;;;;9.48;6.93;;;21.30;91.60;;;;;;5073125;28;20024;-56
2021/11/04 12:25:09;;;;;;;9.55;7.35;;;21.30;91.50;;;;;;5069519;28;20179;-55
2021/11/04 12:27:41;;;;;;;8.95;6.95;;;21.30;91.50;;;;;;5070101;28;20498;-60
2021/11/04 12:30:28;;;;;;;10.35;6.65;;;21.30;91.50;;;;;;5071789;28;20032;-55
2021/11/04 12:33:09;;;;;;;10.63;7.55;;;21.30;91.50;;;;;;5066817;28;20090;-51
2021/11/04 12:35:54;;;;;;;10.40;7.07;;;21.30;91.50;;;;;;5072829;28;20111;-55
2021/11/04 12:38:49;;;;;;;10.45;6.88;;;21.30;91.50;;;;;;5073139;28;20024;-63
2021/11/04 12:41:22;;;;;;;10.48;7.13;;;21.20;91.50;;;;;;5073361;28;20063;-57
2021/11/04 12:43:51;;;;;;;7.93;6.22;;;21.20;91.60;;;;;;5069510;28;20025;-59
2021/11/04 12:46:24;;;;;;;9.38;6.93;;;21.20;91.50;;;;;;5072337;28;20066;-51
2021/11/04 12:48:54;;;;;;;8.38;6.82;;;21.20;91.40;;;;;;5073054;28;20029;-62
2021/11/04 12:51:23;;;;;;;8.43;6.68;;;21.20;91.40;;;;;;5075186;28;20031;-66
2021/11/04 12:53:58;;;;;;;9.73;6.45;;;21.20;91.40;;;;;;5075786;28;20056;-70
2021/11/04 12:56:44;;;;;;;10.63;7.07;;;21.20;91.40;;;;;;5075515;28;20044;-66
2021/11/04 12:59:43;;;;;;;10.82;6.97;;;21.20;91.40;;;;;;5075155;28;20081;-62
2021/11/04 13:02:36;;;;;;;8.43;6.55;;;21.20;91.30;;;;;;5075443;28;20028;-70
2021/11/04 13:05:13;;;;;;;11.88;6.85;;;21.20;91.30;;;;;;5075575;28;20082;-61
2021/11/04 13:07:42;;;;;;;8.68;6.15;;;21.20;91.30;;;;;;5075325;28;20028;-69